This is the latest recevied weather packets stored in our database for station/object OK2ILA-14. If no packets are shown the sender has not sent any weather packets the latest 10 day(s).
| Time | Temp. | Humidity | Pressure | Rain* | Wind** | Luminosity | Snow |
|---|---|---|---|---|---|---|---|
| 1777922052 | 15.56° C | 49% | 1011.9 hPa | - | - | - | - |
| 1777921460 | 15.56° C | 47% | 1011.9 hPa | - | - | - | - |
| 1777920852 | 16.67° C | 46% | 1011.8 hPa | - | - | - | - |
| 1777920252 | 17.22° C | 44% | 1011.7 hPa | - | - | - | - |
| 1777919652 | 17.78° C | 42% | 1011.6 hPa | - | - | - | - |
| 1777919052 | 17.78° C | 41% | 1011.5 hPa | - | - | - | - |
| 1777918452 | 17.78° C | 41% | 1011.4 hPa | - | - | - | - |
| 1777917851 | 18.33° C | 41% | 1011.5 hPa | - | - | - | - |
| 1777917251 | 18.89° C | 39% | 1011.4 hPa | - | - | - | - |
| 1777916657 | 20° C | 36% | 1011.3 hPa | - | - | - | - |
| 1777916051 | 20.56° C | 34% | 1011.3 hPa | - | - | - | - |
| 1777915451 | 21.11° C | 33% | 1011.3 hPa | - | - | - | - |
| 1777914851 | 21.67° C | 32% | 1011.3 hPa | - | - | - | - |
| 1777914251 | 22.22° C | 32% | 1011.3 hPa | - | - | - | - |
| 1777913650 | 23.89° C | 30% | 1011.2 hPa | - | - | - | - |
| 1777913050 | 25.56° C | 29% | 1011.2 hPa | - | - | - | - |
| 1777912450 | 25° C | 30% | 1011.2 hPa | - | - | - | - |
| 1777911850 | 25° C | 29% | 1011.2 hPa | - | - | - | - |
| 1777911250 | 26.11° C | 28% | 1011.3 hPa | - | - | - | - |
| 1777910650 | 26.67° C | 27% | 1011.4 hPa | - | - | - | - |
| 1777910049 | 26.11° C | 28% | 1011.4 hPa | - | - | - | - |
| 1777909449 | 26.11° C | 29% | 1011.5 hPa | - | - | - | - |
| 1777908849 | 25° C | 31% | 1011.6 hPa | - | - | - | - |
| 1777908249 | 25° C | 30% | 1011.5 hPa | - | - | - | - |
| 1777907649 | 25.56° C | 30% | 1011.7 hPa | - | - | - | - |
* Rain since midnight (hover to see other rain measurements)
** Current wind speed in m/s (hover to see current wind gust speed)